Airfield :
LOGIN :

Register | Disclaimer

   EN    FR    IT 

 










Legend :    VFR   Marginal VFR   IFR   Intensive IFR   Very Intensive IFR
Visi :
Ceiling :
>= 8 km
>= 3000ft
5 to 8 km
1000 to 3000 ft
1500m to 5 km
500 to 1000 ft
800 to 1500m
200 to 500 ft
< 800m
< 200 ft
Symbols :   Thunderstorms  Fog  Heavy snow  Heavy precipitations  Wind > 20 kt
SIGMETs :     Misc.  Thunderstorms  Icing  Turbulence  Mountain Waves  Volcanic Ashes







- Airport Elevation : 1416 ft
- IATA code : ZRH


LSZH - Zurich

CURRENT METAR :
  • 211720Z 21003KT CAVOK 11/02 Q1028 NOSIG

EXPIRED METARs :
  • 211650Z 23003KT 160V250 CAVOK 13/01 Q1028 NOSIG
  • 211620Z 22004KT CAVOK 13/02 Q1028 NOSIG
  • 211550Z 24005KT CAVOK 15/02 Q1028 NOSIG
  • 211520Z 24005KT CAVOK 15/01 Q1028 NOSIG
  • 211450Z 26004KT CAVOK 15/01 Q1028 NOSIG

TAF TAF LSZH
Valid from the 21 at 18:00 until the 23 at 00:00 UTC


211725Z 2118/2224 VRB03KT CAVOK TX12/2215Z TN01/2201Z
BECMG 2121/2124 9999 BKN060
BECMG 2213/2216 05006KT
ATIS : +41 43 816 2295 (DEP) +41 43 816 2294 (ARR)
No reported NOTAMs for that airfield.



MET'MAP, your aeronautical weather chart ! - Copyright ORBIFLY December 2007 - Disclaimer

ORBIFLY MET'MAP TEAM :

Programming & Development : Alexandra Zaïnal
Concept & Development : Baudouin d'Aumeries
Co-Development & Prog : Marc-Olivier Méhu
Technical & hardware support : Manuel Goepfert

Contact : metmap@orbifly.com




SOURCES & CREDITS :

   NOAA